• Join FlightAware (Why Join?)
  • Login
  • US Flag 
09:52AM EDT


 

Airport Tracker/Info


-or-


 

Live Flight TrackerFlight Track Log ✈ AWE3397 ✈ 27-Apr-2013 ✈ KMHT - KPHL

Flight Track Log - Related Links

Times and Time Zones

All times are in EDT time to prevent confusion due to time zone crossing. See the AWE3397 flight status page for this flight to view local times or setup timezone preferences in your user account.

Time Position Orientation Groundspeed Altitude Reporting Facility
EDT Latitude Longitude Course Direction KTS MPH feet Rate Location/Type
05:41AM 42.9500 -71.4333 270° West 145 167 1,100  Level KA90
05:42AM 42.9667 -71.4167 36° Northeast 182 209 2,300 1,980 Climbing KA90
05:43AM 43.0125 -71.4064 North 211 243 4,100 3,420 Climbing Boston Center
05:44AM 42.9500 -71.9101 270° West  Level FlightAware Approximate
05:44AM 43.0300 -71.5056 284° West 171 197 8,800  Level Boston Center
05:45AM 42.9500 -72.0307 270° West  Level FlightAware Approximate
05:45AM 43.0289 -71.6022 269° West 243 280 11,400  Level Boston Center
05:46AM 42.9501 -72.1512 270° West  Level FlightAware Approximate
05:46AM 43.0275 -71.7386 269° West 313 360 14,800  Level Boston Center
05:47AM 43.0242 -71.8550 268° West 343 395 17,600 2,700 Climbing Boston Center
05:48AM 43.0247 -72.0028 270° West 353 406 20,200 2,400 Climbing Boston Center
05:49AM 43.0211 -72.1419 268° West 358 412 22,500 2,100 Climbing Boston Center
05:50AM 43.0233 -72.2894 271° West 371 427 24,500 1,740 Climbing Boston Center
05:51AM 43.0236 -72.4372 270° West 387 445 26,000 720 Climbing Boston Center
05:52AM 43.0192 -72.5878 268° West 395 455 26,000  Level Boston Center
05:53AM 43.0044 -72.7239 262° West 407 468 26,000  Level Boston Center
05:54AM 42.9728 -72.8714 254° West 407 468 26,000  Level Boston Center
05:55AM 42.9367 -73.0300 253° West 407 468 26,000  Level Boston Center
05:56AM 42.9025 -73.1742 252° West 407 468 26,000  Level Boston Center
05:57AM 42.8681 -73.3211 252° West 407 468 26,000  Level Boston Center
05:58AM 42.8378 -73.4367 250° West 407 468 26,000  Level Boston Center
05:59AM 42.7944 -73.6114 251° West 402 463 26,000  Level Boston Center
06:00AM 42.7597 -73.7522 251° West 407 468 26,000  Level Boston Center
06:01AM 42.7039 -73.8894 241° Southwest 407 468 26,000  Level Boston Center
06:02AM 42.6458 -74.0122 237° Southwest 402 463 26,000  Level Boston Center
06:03AM 42.5728 -74.1711 238° Southwest 410 472 26,000  Level Boston Center
06:04AM 42.5103 -74.2989 236° Southwest 410 472 26,000  Level Boston Center
06:05AM 42.4475 -74.4267 236° Southwest 410 472 26,000  Level Boston Center
06:07AM 42.3192 -74.6747 235° Southwest 403 464 26,000  Level New York Center
06:08AM 42.2567 -74.8025 237° Southwest 403 464 26,000 -960 Level New York Center
06:09AM 42.1942 -74.9275 236° Southwest 410 472 24,100 -2,160 Descending New York Center
06:10AM 42.1097 -75.0172 218° Southwest 390 449 21,800 -2,160 Descending New York Center
06:11AM 42.0156 -75.0922 211° Southwest 390 449 19,800 -1,440 Descending New York Center
06:12AM 41.9272 -75.1672 212° Southwest 390 449 19,000 -420 Descending New York Center
06:13AM 41.8350 -75.2417 211° Southwest 385 443 19,000 -240 Level New York Center
06:14AM 41.7469 -75.3108 210° Southwest 385 443 18,600 -1,080 Descending New York Center
06:15AM 41.6675 -75.3778 212° Southwest 379 436 16,900 -1,920 Descending New York Center
06:16AM 41.5836 -75.4439 211° Southwest 379 436 14,900 -2,100 Descending New York Center
06:17AM 41.4933 -75.5181 212° Southwest 362 417 12,800 -1,440 Descending New York Center
06:18AM 41.4072 -75.5839 210° Southwest 351 404 12,000 -420 Descending New York Center
06:19AM 41.3319 -75.6447 211° Southwest 351 404 12,000  Level New York Center
06:20AM 41.2447 -75.6881 200° South 342 394 12,000  Level New York Center
06:21AM 41.1467 -75.6892 180° South 342 394 12,000  Level New York Center
06:22AM 41.0383 -75.6897 180° South 356 410 12,000  Level New York Center
06:23AM 40.9467 -75.6886 179° South 366 421 12,000  Level New York Center
06:24AM 40.8383 -75.6889 180° South 366 421 12,000  Level New York Center
06:25AM 40.7386 -75.6844 178° South 366 421 12,000  Level New York Center
06:26AM 40.6467 -75.6861 181° South 366 421 12,000 -60 Level New York Center
06:27AM 40.5592 -75.6361 157° South 366 421 11,900 -720 Descending New York Center
06:28AM 40.4950 -75.5225 127° Southeast 336 387 10,600 -1,080 Descending New York Center
06:29AM 40.4425 -75.4289 126° Southeast 325 374 9,800 -1,320 Descending New York Center
06:30AM 40.3753 -75.3889 156° South 293 337 8,000 -1,860 Descending New York Center
06:31AM 40.3083 -75.3436 153° Southeast 281 323 6,200 -1,020 Descending New York Center
06:32AM 40.2406 -75.2656 139° Southeast 284 327 6,000 -60 Descending New York Center
06:33AM 40.1803 -75.2019 141° Southeast 285 328 6,100  Climbing New York Center
06:34AM 40.1217 -75.1547 148° Southeast 278 320 6,000 -480 Descending New York Center
06:35AM 40.0556 -75.1369 168° South 238 274 5,200 -1,380 Descending New York Center
06:36AM 40.0042 -75.1231 168° South 223 257 3,300 -2,040 Descending New York Center
06:36AM 39.9833 -75.1167 167° South 203 234 2,600 -960 Descending Philadelphia TRACON
06:37AM 39.9333 -75.1000 166° South 195 224 2,200 -600 Descending Philadelphia TRACON
06:38AM 39.9000 -75.1333 217° Southwest 175 201 1,500 -660 Descending Philadelphia TRACON